Time;durP1;ratioP1;P1;durP2;ratioP2;P2;SDS_P1;SDS_P2;PMS_P1;PMS_P2;Temp;Humidity;BMP_temperature;BMP_pressure;BME280_temperature;BME280_humidity;BME280_pressure;Samples;Min_cycle;Max_cycle;Signal;HPM_P1;HPM_P2
2023/04/20 00:01:31;;;;;;;2.92;1.58;;;8.70;79.50;;;;;;5027072;28;20112;-61
2023/04/20 00:03:57;;;;;;;2.33;1.40;;;8.70;80.40;;;;;;5045851;28;20017;-57
2023/04/20 00:06:28;;;;;;;1.95;1.33;;;8.70;80.70;;;;;;5044032;28;20025;-55
2023/04/20 00:08:54;;;;;;;4.43;1.50;;;8.60;81.40;;;;;;5046431;28;20078;-57
2023/04/20 00:11:19;;;;;;;1.50;1.40;;;8.60;82.30;;;;;;5041221;28;20029;-59
2023/04/20 00:13:45;;;;;;;2.55;1.55;;;8.50;82.60;;;;;;5046514;28;20021;-58
2023/04/20 00:16:11;;;;;;;3.45;1.45;;;8.50;83.40;;;;;;5042096;28;20025;-59
2023/04/20 00:18:36;;;;;;;4.63;1.70;;;8.40;84.80;;;;;;5045143;28;20615;-59
2023/04/20 00:21:02;;;;;;;1.67;1.10;;;8.40;85.10;;;;;;5042519;28;20028;-57
2023/04/20 00:23:27;;;;;;;2.45;1.10;;;8.40;85.70;;;;;;5046346;28;20542;-57
2023/04/20 00:25:53;;;;;;;1.90;1.30;;;8.40;87.10;;;;;;5046609;28;20525;-59
2023/04/20 00:28:19;;;;;;;2.88;1.45;;;8.30;86.70;;;;;;5045408;28;20513;-53
2023/04/20 00:30:44;;;;;;;2.53;1.63;;;8.30;87.60;;;;;;5041845;28;20029;-56
2023/04/20 00:33:10;;;;;;;2.70;1.48;;;8.20;88.40;;;;;;5046877;28;20021;-58
2023/04/20 00:35:35;;;;;;;2.45;1.40;;;8.20;89.00;;;;;;5045203;28;20937;-58
2023/04/20 00:38:01;;;;;;;3.08;1.50;;;8.10;89.70;;;;;;5046894;28;20025;-57
2023/04/20 00:40:26;;;;;;;2.25;1.23;;;8.10;90.30;;;;;;5046499;28;20036;-56
2023/04/20 00:42:52;;;;;;;3.38;1.77;;;8.10;90.70;;;;;;5029145;28;20475;-54
2023/04/20 00:45:17;;;;;;;4.13;1.67;;;8.10;91.60;;;;;;5026568;28;20368;-57
2023/04/20 00:47:43;;;;;;;2.35;1.40;;;8.00;92.00;;;;;;5046197;28;21432;-55
2023/04/20 00:50:10;;;;;;;2.45;1.45;;;8.00;92.30;;;;;;5031319;28;20017;-59
2023/04/20 00:52:36;;;;;;;1.77;1.67;;;8.00;92.70;;;;;;5049162;28;20028;-61
2023/04/20 00:55:02;;;;;;;3.65;1.42;;;7.90;92.90;;;;;;5050087;28;20031;-60
2023/04/20 00:57:29;;;;;;;2.50;1.63;;;7.90;93.60;;;;;;5049376;28;20039;-54
2023/04/20 00:59:55;;;;;;;1.95;1.42;;;7.90;93.30;;;;;;5045415;28;20032;-59
2023/04/20 01:02:21;;;;;;;5.55;1.67;;;7.80;93.70;;;;;;5046335;28;20045;-58
2023/04/20 01:04:47;;;;;;;3.92;1.23;;;7.80;94.10;;;;;;5045082;28;20479;-56
2023/04/20 01:07:12;;;;;;;6.20;2.13;;;7.80;94.30;;;;;;5033190;28;20027;-58
2023/04/20 01:09:38;;;;;;;3.67;1.30;;;7.70;94.60;;;;;;5050967;28;20020;-60
2023/04/20 01:12:05;;;;;;;5.10;2.28;;;7.70;95.30;;;;;;5037468;28;20032;-60
2023/04/20 01:14:30;;;;;;;6.82;1.55;;;7.70;95.50;;;;;;5049778;28;20507;-59
2023/04/20 01:16:57;;;;;;;2.90;1.77;;;7.60;96.20;;;;;;5032954;28;20057;-56
2023/04/20 01:19:23;;;;;;;5.28;1.90;;;7.60;96.60;;;;;;5049543;28;20024;-59
2023/04/20 01:21:48;;;;;;;5.38;2.00;;;7.60;97.30;;;;;;5045252;28;20021;-58
2023/04/20 01:24:14;;;;;;;3.22;1.65;;;7.60;97.50;;;;;;5047196;28;20025;-60
2023/04/20 01:26:40;;;;;;;2.33;1.25;;;7.50;97.60;;;;;;5049927;28;20395;-59
2023/04/20 01:29:05;;;;;;;5.45;1.70;;;7.50;98.00;;;;;;5033300;28;20029;-58
2023/04/20 01:31:31;;;;;;;2.63;1.55;;;7.40;98.50;;;;;;5031316;28;20041;-56
2023/04/20 01:33:56;;;;;;;5.65;1.90;;;7.40;98.70;;;;;;5031881;28;20057;-57
2023/04/20 01:36:22;;;;;;;6.90;2.33;;;7.30;99.10;;;;;;5031744;28;20028;-59
2023/04/20 01:38:48;;;;;;;2.88;1.55;;;7.30;99.60;;;;;;5049231;28;20021;-59
2023/04/20 01:41:13;;;;;;;3.13;2.00;;;7.30;99.50;;;;;;5047798;28;20028;-60
2023/04/20 01:43:39;;;;;;;2.47;1.67;;;7.30;99.70;;;;;;5048387;28;20075;-58
2023/04/20 01:46:06;;;;;;;3.95;2.15;;;7.30;99.90;;;;;;5049966;28;20034;-58
2023/04/20 01:48:32;;;;;;;4.85;1.85;;;7.30;99.90;;;;;;5049155;28;20100;-58
2023/04/20 01:50:58;;;;;;;4.82;2.00;;;7.30;99.90;;;;;;5031524;28;20794;-59
2023/04/20 01:53:26;;;;;;;5.00;2.10;;;7.20;99.90;;;;;;5049452;28;20028;-57
2023/04/20 01:55:52;;;;;;;4.28;2.17;;;7.20;99.90;;;;;;5048192;28;20026;-54
2023/04/20 01:58:17;;;;;;;4.20;2.00;;;7.20;99.90;;;;;;5049035;28;20021;-60
2023/04/20 02:00:43;;;;;;;3.83;1.90;;;7.10;99.90;;;;;;5031086;28;20120;-55
2023/04/20 02:03:09;;;;;;;4.82;2.35;;;7.10;99.90;;;;;;5046610;28;20116;-59
2023/04/20 02:05:34;;;;;;;4.13;1.85;;;7.00;99.90;;;;;;5049399;28;20469;-60
2023/04/20 02:08:00;;;;;;;5.75;1.95;;;6.90;99.90;;;;;;5049399;28;20033;-60
2023/04/20 02:10:25;;;;;;;4.50;2.22;;;6.90;99.90;;;;;;5048750;28;20029;-57
2023/04/20 02:12:51;;;;;;;4.28;2.78;;;6.90;99.90;;;;;;5044632;28;20035;-60
2023/04/20 02:15:16;;;;;;;8.80;2.78;;;6.80;99.90;;;;;;5047249;28;20021;-60
2023/04/20 02:17:42;;;;;;;4.00;2.10;;;6.70;99.90;;;;;;5047587;28;20417;-61
2023/04/20 02:20:09;;;;;;;5.07;2.45;;;6.60;99.90;;;;;;5046455;28;20029;-60
2023/04/20 02:22:35;;;;;;;3.63;2.13;;;6.60;99.90;;;;;;5048204;28;20499;-59
2023/04/20 02:25:02;;;;;;;7.70;2.20;;;6.60;99.90;;;;;;5047277;28;20048;-60
2023/04/20 02:27:27;;;;;;;5.07;2.40;;;6.60;99.90;;;;;;5049418;28;20021;-60
2023/04/20 02:29:53;;;;;;;2.78;2.42;;;6.50;99.90;;;;;;5048304;28;20091;-59
2023/04/20 02:32:19;;;;;;;5.70;2.58;;;6.40;99.90;;;;;;5047650;28;20033;-60
2023/04/20 02:34:45;;;;;;;3.00;1.98;;;6.40;99.90;;;;;;5030533;28;20058;-58
2023/04/20 02:37:10;;;;;;;5.47;2.45;;;6.40;99.90;;;;;;5045715;28;20025;-61
2023/04/20 02:39:36;;;;;;;5.50;2.25;;;6.40;99.90;;;;;;5048544;28;20082;-56
2023/04/20 02:42:01;;;;;;;6.50;3.15;;;6.40;99.90;;;;;;5048553;28;20032;-59
2023/04/20 02:44:27;;;;;;;3.80;2.20;;;6.40;99.90;;;;;;5047243;28;20037;-59
2023/04/20 02:46:53;;;;;;;4.00;2.25;;;6.50;99.90;;;;;;5030169;28;20021;-59
2023/04/20 02:49:18;;;;;;;4.00;2.05;;;6.50;99.90;;;;;;5048230;28;20039;-59
2023/04/20 02:51:44;;;;;;;4.10;2.47;;;6.40;99.90;;;;;;5048552;28;20035;-58
2023/04/20 02:54:09;;;;;;;8.57;2.85;;;6.40;99.90;;;;;;5048423;28;20029;-60
2023/04/20 02:56:35;;;;;;;6.03;2.47;;;6.40;99.90;;;;;;5048327;28;20069;-60
2023/04/20 02:59:00;;;;;;;7.93;2.45;;;6.40;99.90;;;;;;5048711;28;20029;-60
2023/04/20 03:01:26;;;;;;;4.38;2.35;;;6.40;99.90;;;;;;5044453;28;20110;-58
2023/04/20 03:03:52;;;;;;;7.82;3.20;;;6.40;99.90;;;;;;5043458;28;20029;-59
2023/04/20 03:06:17;;;;;;;4.72;2.53;;;6.40;99.90;;;;;;5045735;28;20021;-57
2023/04/20 03:08:43;;;;;;;5.05;2.65;;;6.40;99.90;;;;;;5047279;28;20516;-59
2023/04/20 03:11:08;;;;;;;7.40;2.95;;;6.40;99.90;;;;;;5046432;28;20028;-58
2023/04/20 03:13:35;;;;;;;5.28;2.58;;;6.30;99.90;;;;;;5046893;28;20013;-58
2023/04/20 03:16:00;;;;;;;6.00;2.45;;;6.30;99.90;;;;;;5030511;28;20032;-57
2023/04/20 03:18:26;;;;;;;6.50;2.90;;;6.30;99.90;;;;;;5047000;28;20114;-59
2023/04/20 03:20:51;;;;;;;8.70;3.58;;;6.30;99.90;;;;;;5047239;28;20104;-59
2023/04/20 03:23:17;;;;;;;7.10;3.08;;;6.30;99.90;;;;;;5048170;28;20031;-59
2023/04/20 03:25:43;;;;;;;8.20;3.15;;;6.30;99.90;;;;;;5045902;28;20678;-60
2023/04/20 03:28:09;;;;;;;4.50;2.58;;;6.30;99.90;;;;;;5030881;28;20143;-61
2023/04/20 03:30:34;;;;;;;7.05;2.90;;;6.30;99.90;;;;;;5043590;28;20566;-59
2023/04/20 03:33:00;;;;;;;3.42;2.25;;;6.30;99.90;;;;;;5047844;28;20039;-60
2023/04/20 03:35:26;;;;;;;5.72;3.20;;;6.30;99.90;;;;;;5047858;28;20029;-59
2023/04/20 03:37:51;;;;;;;5.65;3.05;;;6.20;99.90;;;;;;5030305;28;20025;-60
2023/04/20 03:40:17;;;;;;;6.18;3.45;;;6.20;99.90;;;;;;5047323;28;20084;-53
2023/04/20 03:42:42;;;;;;;8.52;2.90;;;6.10;99.90;;;;;;5046184;28;20559;-56
2023/04/20 03:45:08;;;;;;;5.00;2.95;;;6.10;99.90;;;;;;5047688;28;20063;-61
2023/04/20 03:47:34;;;;;;;7.10;2.97;;;6.10;99.90;;;;;;5029809;28;20024;-56
2023/04/20 03:50:00;;;;;;;8.98;2.95;;;6.00;99.90;;;;;;5046339;28;20041;-60
2023/04/20 03:52:25;;;;;;;6.68;3.42;;;6.00;99.90;;;;;;5045023;28;20136;-60
2023/04/20 03:54:51;;;;;;;6.72;3.00;;;5.90;99.90;;;;;;5046729;28;20584;-60
2023/04/20 03:57:16;;;;;;;6.07;3.58;;;5.90;99.90;;;;;;5030994;28;20035;-62
2023/04/20 03:59:42;;;;;;;4.55;3.35;;;5.80;99.90;;;;;;5046080;28;20033;-63
2023/04/20 04:02:09;;;;;;;7.72;3.30;;;5.80;99.90;;;;;;5040907;28;20037;-63
2023/04/20 04:04:35;;;;;;;8.27;2.70;;;5.70;99.90;;;;;;5047268;28;20104;-63
2023/04/20 04:07:01;;;;;;;7.35;2.90;;;5.60;99.90;;;;;;5047001;28;20042;-61
2023/04/20 04:09:26;;;;;;;7.22;3.38;;;5.60;99.90;;;;;;5046869;28;20025;-60
2023/04/20 04:11:52;;;;;;;7.22;3.33;;;5.50;99.90;;;;;;5047583;28;20025;-60
2023/04/20 04:14:17;;;;;;;10.32;3.83;;;5.50;99.90;;;;;;5047115;28;20116;-62
2023/04/20 04:16:43;;;;;;;9.38;3.85;;;5.50;99.90;;;;;;5045182;28;20029;-61
2023/04/20 04:19:10;;;;;;;9.98;3.70;;;5.50;99.90;;;;;;5046286;28;20608;-60
2023/04/20 04:21:35;;;;;;;8.38;3.30;;;5.50;99.90;;;;;;5044937;28;20033;-58
2023/04/20 04:26:32;;;;;;;6.97;3.65;;;5.40;99.90;;;;;;5070152;22;20045;-49
2023/04/20 04:28:58;;;;;;;9.10;3.40;;;5.40;99.90;;;;;;5051395;28;20098;-49
2023/04/20 04:31:24;;;;;;;6.20;3.50;;;5.40;99.90;;;;;;5051091;28;20029;-51
2023/04/20 04:33:50;;;;;;;6.32;3.45;;;5.40;99.90;;;;;;5051317;28;20437;-51
2023/04/20 04:36:16;;;;;;;5.90;3.72;;;5.40;99.90;;;;;;5050840;28;20108;-49
2023/04/20 04:38:43;;;;;;;7.45;4.18;;;5.40;99.90;;;;;;5050832;28;20457;-50
2023/04/20 04:41:10;;;;;;;6.45;3.83;;;5.40;99.90;;;;;;5049969;28;20437;-50
2023/04/20 04:43:36;;;;;;;9.30;4.07;;;5.50;99.90;;;;;;5050974;28;20017;-50
2023/04/20 04:46:09;;;;;;;6.32;3.42;;;5.50;99.90;;;;;;5034045;28;20075;-49
2023/04/20 04:48:36;;;;;;;8.30;4.07;;;5.40;99.90;;;;;;5051175;28;20021;-52
2023/04/20 04:51:02;;;;;;;5.28;3.45;;;5.40;99.90;;;;;;5050688;28;20029;-50
2023/04/20 04:53:27;;;;;;;8.70;4.60;;;5.40;99.90;;;;;;5048516;28;20036;-49
2023/04/20 04:55:53;;;;;;;9.57;3.83;;;5.40;99.90;;;;;;5047081;28;20021;-50
2023/04/20 04:58:19;;;;;;;10.80;3.85;;;5.40;99.90;;;;;;5050704;28;20025;-50
2023/04/20 05:00:44;;;;;;;9.95;4.53;;;5.40;99.90;;;;;;5047374;28;20075;-50
2023/04/20 05:03:10;;;;;;;10.05;4.10;;;5.40;99.90;;;;;;5049076;28;20645;-49
2023/04/20 05:05:35;;;;;;;10.60;4.68;;;5.40;99.90;;;;;;5044587;28;20025;-50
2023/04/20 05:08:01;;;;;;;8.90;4.70;;;5.40;99.90;;;;;;5048847;28;20037;-51
2023/04/20 05:10:27;;;;;;;8.70;4.00;;;5.40;99.90;;;;;;5048723;28;20029;-49
2023/04/20 05:12:53;;;;;;;8.93;3.78;;;5.40;99.90;;;;;;5049510;28;20017;-50
2023/04/20 05:15:18;;;;;;;10.68;4.68;;;5.50;99.90;;;;;;5032038;28;20372;-49
2023/04/20 05:17:44;;;;;;;5.85;4.22;;;5.50;99.90;;;;;;5048465;28;20540;-49
2023/04/20 05:20:10;;;;;;;11.32;4.50;;;5.50;99.90;;;;;;5048473;28;20029;-49
2023/04/20 05:22:36;;;;;;;7.57;4.10;;;5.40;99.90;;;;;;5032259;28;20048;-49
2023/04/20 05:25:03;;;;;;;10.90;4.38;;;5.40;99.90;;;;;;5049730;28;20032;-49
2023/04/20 05:27:29;;;;;;;8.38;4.18;;;5.50;99.90;;;;;;5049176;28;20021;-50
2023/04/20 05:29:55;;;;;;;9.32;4.25;;;5.50;99.90;;;;;;5046659;28;20028;-49
2023/04/20 05:32:20;;;;;;;9.52;4.32;;;5.50;99.90;;;;;;5048974;28;20502;-52
2023/04/20 05:34:46;;;;;;;9.32;4.13;;;5.50;99.90;;;;;;5046781;28;20082;-52
2023/04/20 05:37:12;;;;;;;9.50;4.50;;;5.50;99.90;;;;;;5028362;28;20032;-50
2023/04/20 05:39:37;;;;;;;8.50;3.83;;;5.50;99.90;;;;;;5048824;28;20028;-49
2023/04/20 05:42:03;;;;;;;7.35;3.97;;;5.50;99.90;;;;;;5045243;28;20048;-48
2023/04/20 05:44:28;;;;;;;7.72;4.43;;;5.50;99.90;;;;;;5032180;28;20013;-51
2023/04/20 05:46:54;;;;;;;9.60;4.85;;;5.50;99.90;;;;;;5049395;28;20556;-52
2023/04/20 05:49:20;;;;;;;10.52;4.65;;;5.50;99.90;;;;;;5047034;28;20028;-52
2023/04/20 05:51:45;;;;;;;11.73;5.13;;;5.50;99.90;;;;;;5025164;28;20025;-49
2023/04/20 05:54:11;;;;;;;9.93;4.88;;;5.50;99.90;;;;;;5048981;28;20037;-49
2023/04/20 05:56:37;;;;;;;9.05;3.80;;;5.50;99.90;;;;;;5049401;28;20032;-49
2023/04/20 05:59:03;;;;;;;9.75;4.07;;;5.50;99.90;;;;;;5049120;28;20462;-49
2023/04/20 06:01:28;;;;;;;8.38;4.43;;;5.50;99.90;;;;;;5048010;28;20036;-50
2023/04/20 06:03:54;;;;;;;9.27;3.42;;;5.50;99.90;;;;;;5044387;28;20044;-51
2023/04/20 06:06:20;;;;;;;9.55;5.00;;;5.50;99.90;;;;;;5046837;28;20025;-51
2023/04/20 06:08:46;;;;;;;9.98;5.43;;;5.60;99.90;;;;;;5048273;28;20376;-49
2023/04/20 06:11:11;;;;;;;9.95;4.47;;;5.60;99.90;;;;;;5046063;28;20110;-49
2023/04/20 06:13:37;;;;;;;11.95;4.63;;;5.60;99.90;;;;;;5049279;28;20033;-52
2023/04/20 06:16:02;;;;;;;10.98;5.13;;;5.60;99.90;;;;;;5043488;28;20090;-49
2023/04/20 06:18:28;;;;;;;9.80;5.15;;;5.60;99.90;;;;;;5047765;28;20870;-49
2023/04/20 06:20:54;;;;;;;8.88;4.55;;;5.50;99.90;;;;;;5047963;28;20021;-52
2023/04/20 06:23:19;;;;;;;7.35;4.53;;;5.50;99.90;;;;;;5049150;28;20028;-49
2023/04/20 06:25:45;;;;;;;8.60;4.60;;;5.60;99.90;;;;;;5047470;28;20083;-51
2023/04/20 06:28:11;;;;;;;10.85;4.97;;;5.60;99.90;;;;;;5045568;28;20443;-50
2023/04/20 06:30:36;;;;;;;6.90;4.97;;;5.50;99.90;;;;;;5030017;28;20637;-51
2023/04/20 06:33:02;;;;;;;13.88;5.15;;;5.60;99.90;;;;;;5044497;28;20028;-49
2023/04/20 06:35:28;;;;;;;9.88;5.53;;;5.60;99.90;;;;;;5046863;28;20479;-50
2023/04/20 06:37:56;;;;;;;11.35;5.22;;;5.60;99.90;;;;;;5046911;28;20563;-50
2023/04/20 06:40:22;;;;;;;10.00;5.80;;;5.50;99.90;;;;;;5047780;28;20445;-50
2023/04/20 06:42:48;;;;;;;9.95;4.88;;;5.60;99.90;;;;;;5048060;28;20056;-49
2023/04/20 06:45:13;;;;;;;10.77;6.03;;;5.60;99.90;;;;;;5044541;28;20049;-50
2023/04/20 06:47:39;;;;;;;9.55;5.07;;;5.60;99.90;;;;;;5046181;28;20186;-48
2023/04/20 06:50:08;;;;;;;12.90;5.43;;;5.60;99.90;;;;;;5048332;28;20017;-50
2023/04/20 06:52:37;;;;;;;8.77;4.78;;;5.60;99.90;;;;;;5047175;28;20060;-49
2023/04/20 06:55:03;;;;;;;11.93;4.80;;;5.60;99.90;;;;;;5048113;28;20025;-49
2023/04/20 06:57:28;;;;;;;12.35;4.55;;;5.70;99.90;;;;;;5029837;28;20035;-53
2023/04/20 06:59:54;;;;;;;9.18;4.85;;;5.70;99.90;;;;;;5046862;28;20028;-52
2023/04/20 07:02:20;;;;;;;10.38;5.32;;;5.70;99.90;;;;;;5044837;28;20106;-50
2023/04/20 07:04:45;;;;;;;10.57;4.70;;;5.70;99.90;;;;;;5047482;28;20043;-51
2023/04/20 07:07:11;;;;;;;8.52;5.15;;;5.70;99.90;;;;;;5044722;28;20119;-52
2023/04/20 07:09:36;;;;;;;13.95;5.28;;;5.70;99.90;;;;;;5045953;28;20718;-51
2023/04/20 07:12:02;;;;;;;10.55;4.90;;;5.70;99.90;;;;;;5048084;28;20033;-49
2023/04/20 07:14:28;;;;;;;13.85;4.90;;;5.70;99.90;;;;;;5045755;28;20123;-50
2023/04/20 07:16:53;;;;;;;8.18;5.20;;;5.70;99.90;;;;;;5046963;28;20021;-49
2023/04/20 07:19:19;;;;;;;7.70;5.00;;;5.70;99.90;;;;;;5046597;28;20144;-50
2023/04/20 07:21:45;;;;;;;11.75;5.25;;;5.70;99.90;;;;;;5048600;28;20021;-51
2023/04/20 07:24:11;;;;;;;10.65;5.55;;;5.70;99.90;;;;;;5046728;28;20028;-52
2023/04/20 07:26:36;;;;;;;11.57;4.68;;;5.80;99.90;;;;;;5044336;28;20053;-52
2023/04/20 07:29:02;;;;;;;12.63;5.10;;;5.80;99.90;;;;;;5045130;28;20013;-49
2023/04/20 07:31:28;;;;;;;10.90;4.93;;;5.80;99.90;;;;;;5027524;28;20025;-52
2023/04/20 07:33:54;;;;;;;12.88;5.30;;;5.80;99.90;;;;;;5029700;28;20021;-52
2023/04/20 07:36:21;;;;;;;12.07;4.80;;;5.80;99.90;;;;;;5047341;28;20013;-50
2023/04/20 07:38:49;;;;;;;11.95;5.32;;;5.80;99.90;;;;;;5037683;28;20169;-50
2023/04/20 07:41:15;;;;;;;12.23;5.25;;;5.80;99.90;;;;;;5046538;28;20177;-50
2023/04/20 07:43:41;;;;;;;13.30;5.57;;;5.80;99.90;;;;;;5046395;28;20043;-49
2023/04/20 07:46:07;;;;;;;10.35;5.57;;;5.80;99.90;;;;;;5044926;28;20568;-49
2023/04/20 07:48:33;;;;;;;11.85;4.45;;;5.80;99.90;;;;;;5047657;28;20103;-50
2023/04/20 07:50:59;;;;;;;14.32;5.10;;;5.80;99.90;;;;;;5047096;28;20021;-49
2023/04/20 07:53:25;;;;;;;10.75;5.93;;;5.80;99.90;;;;;;5041630;28;20028;-51
2023/04/20 07:55:51;;;;;;;12.48;6.15;;;5.80;99.90;;;;;;5043741;28;20021;-49
2023/04/20 07:58:17;;;;;;;11.32;5.30;;;5.80;99.90;;;;;;5047075;28;20035;-50
2023/04/20 08:00:45;;;;;;;10.55;5.28;;;5.80;99.90;;;;;;5046305;28;20450;-50
2023/04/20 08:03:10;;;;;;;8.95;5.47;;;5.80;99.90;;;;;;5051121;28;20029;-51
2023/04/20 08:05:37;;;;;;;12.05;5.35;;;5.90;99.90;;;;;;5041873;28;20035;-51
2023/04/20 08:08:03;;;;;;;8.98;4.88;;;5.90;99.90;;;;;;5050580;28;20036;-49
2023/04/20 08:10:29;;;;;;;7.63;4.75;;;5.90;99.90;;;;;;5048317;28;20083;-50
2023/04/20 08:12:54;;;;;;;10.35;5.55;;;5.90;99.90;;;;;;5049345;28;20025;-50
2023/04/20 08:15:20;;;;;;;13.32;5.25;;;5.90;99.90;;;;;;5051675;28;20025;-51
2023/04/20 08:17:45;;;;;;;9.18;4.75;;;5.90;99.90;;;;;;5049608;28;20029;-53
2023/04/20 08:20:11;;;;;;;9.50;5.18;;;6.00;99.90;;;;;;5049206;28;20691;-49
2023/04/20 08:22:37;;;;;;;16.45;5.80;;;6.00;99.90;;;;;;5050059;28;20658;-50
2023/04/20 08:25:03;;;;;;;9.00;6.18;;;6.00;99.90;;;;;;5047614;28;20028;-50
2023/04/20 08:27:29;;;;;;;9.68;5.22;;;6.00;99.90;;;;;;5030892;28;20036;-49
2023/04/20 08:29:56;;;;;;;10.10;5.53;;;6.00;99.90;;;;;;5050393;28;20115;-50
2023/04/20 08:32:24;;;;;;;12.98;6.32;;;6.10;99.90;;;;;;5047782;28;20544;-49
2023/04/20 08:34:49;;;;;;;10.15;5.68;;;6.00;99.90;;;;;;5050381;28;20013;-50
2023/04/20 08:37:15;;;;;;;13.95;5.60;;;6.00;99.90;;;;;;5047080;28;20035;-51
2023/04/20 08:39:40;;;;;;;12.05;5.10;;;6.00;99.90;;;;;;5049720;28;20162;-50
2023/04/20 08:42:06;;;;;;;15.00;5.60;;;6.00;99.90;;;;;;5050184;28;20017;-49
2023/04/20 08:44:32;;;;;;;11.43;5.60;;;6.00;99.90;;;;;;5049980;28;20360;-49
2023/04/20 08:46:58;;;;;;;12.57;5.60;;;6.00;99.90;;;;;;5048929;28;20021;-52
2023/04/20 08:49:27;;;;;;;12.15;5.88;;;6.10;99.90;;;;;;5049408;28;20039;-49
2023/04/20 08:51:53;;;;;;;12.07;5.93;;;6.10;99.90;;;;;;5049315;28;20029;-49
2023/04/20 08:54:18;;;;;;;9.93;6.40;;;6.10;99.90;;;;;;5049733;28;20048;-52
2023/04/20 08:56:46;;;;;;;10.02;6.53;;;6.10;99.90;;;;;;5047861;28;20550;-51
2023/04/20 08:59:13;;;;;;;10.45;6.18;;;6.10;99.90;;;;;;5046861;28;20021;-49
2023/04/20 09:01:40;;;;;;;11.85;6.30;;;6.10;99.90;;;;;;5031274;28;20036;-48
2023/04/20 09:04:15;;;;;;;7.25;5.43;;;6.10;99.90;;;;;;5050248;28;20025;-50
2023/04/20 09:06:45;;;;;;;12.07;6.05;;;6.10;99.90;;;;;;5049735;28;20032;-50
2023/04/20 09:09:11;;;;;;;11.02;6.13;;;6.20;99.90;;;;;;5048584;28;20028;-49
2023/04/20 09:11:36;;;;;;;8.25;5.30;;;6.20;99.90;;;;;;5048304;28;20078;-49
2023/04/20 09:14:11;;;;;;;11.57;6.15;;;6.30;99.90;;;;;;5049516;28;20025;-49
2023/04/20 09:16:46;;;;;;;10.25;5.57;;;6.30;99.90;;;;;;5047932;28;20027;-49
2023/04/20 09:19:12;;;;;;;9.85;5.90;;;6.30;99.90;;;;;;5049369;28;20021;-51
2023/04/20 09:21:51;;;;;;;9.60;6.15;;;6.40;99.90;;;;;;5048608;28;20179;-48
2023/04/20 09:24:20;;;;;;;13.63;7.18;;;6.50;99.90;;;;;;5048380;28;20109;-50
2023/04/20 09:26:46;;;;;;;12.32;6.05;;;6.70;99.90;;;;;;5049928;28;20112;-49
2023/04/20 09:29:22;;;;;;;13.48;6.47;;;6.80;99.90;;;;;;5047516;28;20108;-49
2023/04/20 09:31:49;;;;;;;10.13;5.75;;;6.90;99.90;;;;;;5047843;28;20029;-52
2023/04/20 09:34:15;;;;;;;14.32;6.97;;;6.90;99.90;;;;;;5048449;28;20017;-49
2023/04/20 09:36:51;;;;;;;10.98;6.35;;;7.00;99.90;;;;;;5044384;28;20025;-49
2023/04/20 09:39:18;;;;;;;13.38;6.63;;;7.00;99.90;;;;;;5048899;28;20191;-49
2023/04/20 09:41:45;;;;;;;14.30;6.78;;;7.10;99.90;;;;;;5049759;28;20560;-52
2023/04/20 09:44:12;;;;;;;15.35;5.85;;;7.10;99.90;;;;;;5049645;28;20053;-49
2023/04/20 09:46:39;;;;;;;10.80;5.75;;;7.10;99.90;;;;;;5048566;28;20518;-49
2023/04/20 09:49:09;;;;;;;13.40;7.13;;;7.20;99.90;;;;;;5048728;28;20064;-48
2023/04/20 09:51:45;;;;;;;7.72;5.95;;;7.20;99.90;;;;;;5040419;28;20079;-51
2023/04/20 09:54:12;;;;;;;14.25;6.30;;;7.30;99.90;;;;;;5047787;28;20144;-49
2023/04/20 09:56:39;;;;;;;11.20;6.80;;;7.40;99.90;;;;;;5049547;28;20347;-51
2023/04/20 09:59:06;;;;;;;11.93;6.13;;;7.40;99.90;;;;;;5048711;28;20553;-51
2023/04/20 10:01:34;;;;;;;14.50;5.82;;;7.40;99.90;;;;;;5044337;28;20516;-49
2023/04/20 10:04:02;;;;;;;8.95;6.35;;;7.40;99.90;;;;;;5048727;28;20025;-51
2023/04/20 10:06:30;;;;;;;11.45;6.43;;;7.40;99.90;;;;;;5048501;28;20017;-50
2023/04/20 10:08:57;;;;;;;12.48;6.72;;;7.40;99.90;;;;;;5047536;28;20028;-49
2023/04/20 10:11:29;;;;;;;12.00;6.20;;;7.30;99.90;;;;;;5045817;28;20023;-49
2023/04/20 10:13:56;;;;;;;10.00;6.32;;;7.30;99.90;;;;;;5049312;28;20039;-49
2023/04/20 10:16:22;;;;;;;10.05;5.72;;;7.20;99.90;;;;;;5048460;28;20116;-51
2023/04/20 10:18:58;;;;;;;12.80;5.93;;;7.20;99.90;;;;;;5048868;28;20105;-50
2023/04/20 10:21:23;;;;;;;13.73;6.13;;;7.30;99.90;;;;;;5043683;28;20013;-50
2023/04/20 10:23:50;;;;;;;10.10;5.40;;;7.20;99.90;;;;;;5045885;28;20483;-52
2023/04/20 10:26:16;;;;;;;9.75;6.10;;;7.30;99.90;;;;;;5065145;23;20040;-62
2023/04/20 10:28:43;;;;;;;10.23;6.22;;;7.50;99.90;;;;;;5030697;28;20075;-62
2023/04/20 10:31:12;;;;;;;16.15;5.93;;;7.50;99.90;;;;;;5046620;28;20441;-62
2023/04/20 10:33:48;;;;;;;7.72;5.65;;;7.60;99.90;;;;;;5031339;28;20032;-62
2023/04/20 10:36:21;;;;;;;;;;;7.60;99.90;;;;;;5048724;28;20071;-62
2023/04/20 10:38:47;;;;;;;10.38;5.40;;;7.70;99.90;;;;;;5047376;28;19936;-62
2023/04/20 10:41:12;;;;;;;14.23;6.78;;;7.80;99.90;;;;;;5046980;28;20498;-62
2023/04/20 10:43:41;;;;;;;10.15;5.93;;;7.90;99.90;;;;;;5047095;28;20095;-60
2023/04/20 10:46:22;;;;;;;12.05;5.68;;;7.90;99.90;;;;;;5029897;28;20021;-61
2023/04/20 10:48:55;;;;;;;9.65;5.95;;;7.90;99.90;;;;;;5047467;28;20079;-60
2023/04/20 10:51:24;;;;;;;15.50;7.18;;;7.90;99.90;;;;;;5048003;28;20371;-62
2023/04/20 10:54:06;;;;;;;12.85;6.63;;;8.00;99.90;;;;;;5029538;28;20331;-62
2023/04/20 10:56:43;;;;;;;10.25;6.35;;;7.90;99.90;;;;;;5048007;28;20540;-61
2023/04/20 10:59:11;;;;;;;12.35;6.72;;;7.90;99.90;;;;;;5043410;28;20096;-60
2023/04/20 11:01:37;;;;;;;12.95;6.60;;;7.80;99.90;;;;;;5045291;28;20021;-62
2023/04/20 11:04:03;;;;;;;11.90;6.07;;;7.70;99.90;;;;;;5043749;28;20094;-61
2023/04/20 11:06:30;;;;;;;16.90;6.32;;;7.80;99.90;;;;;;5046808;28;20474;-61
2023/04/20 11:08:56;;;;;;;10.00;7.28;;;7.90;99.90;;;;;;5047574;28;20431;-61
2023/04/20 11:11:26;;;;;;;15.98;7.05;;;7.90;99.90;;;;;;5047226;28;20161;-62
2023/04/20 11:14:07;;;;;;;12.55;6.88;;;8.00;99.90;;;;;;5047586;28;20025;-62
2023/04/20 11:16:33;;;;;;;10.05;6.20;;;7.90;99.90;;;;;;5047589;28;20033;-60
2023/04/20 11:18:59;;;;;;;13.35;6.90;;;7.90;99.90;;;;;;5041761;28;20591;-59
2023/04/20 11:21:41;;;;;;;16.17;8.05;;;7.90;99.90;;;;;;5030144;28;20017;-61
2023/04/20 11:24:37;;;;;;;11.98;7.93;;;7.90;99.90;;;;;;5047582;28;20457;-61
2023/04/20 11:27:03;;;;;;;11.60;6.93;;;7.90;99.90;;;;;;5021128;28;20075;-61
2023/04/20 11:29:30;;;;;;;12.23;6.63;;;8.10;99.90;;;;;;5029267;28;20028;-61
2023/04/20 11:31:57;;;;;;;15.73;7.57;;;8.00;99.90;;;;;;5045078;28;20028;-61
2023/04/20 11:34:24;;;;;;;11.85;6.65;;;8.00;99.90;;;;;;5046418;28;20534;-61
2023/04/20 11:36:50;;;;;;;10.57;7.20;;;8.00;99.90;;;;;;5029925;28;20032;-61
2023/04/20 11:39:28;;;;;;;13.15;7.30;;;8.00;99.90;;;;;;5045672;28;20017;-61
2023/04/20 11:41:55;;;;;;;9.88;7.43;;;8.10;99.90;;;;;;5045803;28;20017;-61
2023/04/20 11:44:22;;;;;;;9.50;7.70;;;8.20;99.90;;;;;;5047191;28;20013;-60
2023/04/20 11:46:48;;;;;;;9.73;6.97;;;8.30;99.90;;;;;;5042052;28;20013;-61
2023/04/20 11:49:15;;;;;;;9.77;7.05;;;8.40;99.90;;;;;;5028121;28;20497;-60
2023/04/20 11:51:42;;;;;;;8.45;7.30;;;8.30;99.90;;;;;;5044224;28;20032;-60
2023/04/20 11:54:08;;;;;;;9.07;6.65;;;8.30;99.90;;;;;;5029556;28;20025;-60
2023/04/20 11:56:33;;;;;;;13.70;6.75;;;8.30;99.90;;;;;;5046704;28;20028;-61
2023/04/20 11:58:59;;;;;;;11.57;7.00;;;8.30;99.90;;;;;;5046201;28;20053;-61
2023/04/20 12:01:25;;;;;;;7.68;6.20;;;8.30;99.90;;;;;;5041266;28;20037;-61
2023/04/20 12:03:50;;;;;;;15.38;7.43;;;8.30;99.90;;;;;;5046810;28;20100;-61
2023/04/20 12:06:16;;;;;;;13.73;7.20;;;8.40;99.90;;;;;;5044688;28;20103;-62
2023/04/20 12:08:42;;;;;;;10.50;6.35;;;8.40;99.90;;;;;;5047104;28;20026;-61
2023/04/20 12:11:08;;;;;;;10.52;7.05;;;8.30;99.90;;;;;;5045531;28;20018;-61
2023/04/20 12:13:33;;;;;;;10.60;6.38;;;8.30;99.90;;;;;;5037551;28;20021;-60
2023/04/20 12:15:59;;;;;;;18.63;8.32;;;8.30;99.90;;;;;;5042672;28;20029;-61
2023/04/20 12:18:24;;;;;;;13.52;7.55;;;8.30;99.90;;;;;;5045388;28;20448;-61
2023/04/20 12:20:50;;;;;;;11.48;7.10;;;8.40;99.90;;;;;;5046129;28;20483;-60
2023/04/20 12:23:16;;;;;;;18.13;7.03;;;8.30;99.90;;;;;;5027169;28;20037;-60
2023/04/20 12:25:42;;;;;;;12.88;7.03;;;8.30;99.90;;;;;;5042588;28;20167;-61
2023/04/20 12:28:07;;;;;;;15.38;8.15;;;8.20;99.90;;;;;;5046949;28;20059;-60
2023/04/20 12:30:34;;;;;;;17.25;7.85;;;8.20;99.90;;;;;;5044588;28;20372;-61
2023/04/20 12:33:01;;;;;;;11.13;6.78;;;8.20;99.90;;;;;;5047158;28;20041;-60
2023/04/20 12:35:26;;;;;;;12.43;7.72;;;8.30;99.90;;;;;;5025395;28;20075;-61
2023/04/20 12:37:52;;;;;;;13.30;7.82;;;8.40;99.90;;;;;;5046891;28;20033;-61
2023/04/20 12:40:17;;;;;;;10.48;7.07;;;8.30;99.90;;;;;;5042387;28;20020;-60
2023/04/20 12:42:43;;;;;;;14.25;7.45;;;8.30;99.90;;;;;;5029806;28;20024;-60
2023/04/20 12:45:09;;;;;;;14.63;7.43;;;8.40;99.90;;;;;;5036699;28;20024;-60
2023/04/20 12:47:35;;;;;;;16.58;7.35;;;8.50;99.90;;;;;;5034041;28;20029;-60
2023/04/20 12:50:01;;;;;;;16.10;7.90;;;8.60;99.90;;;;;;5049241;28;20136;-61
2023/04/20 12:52:27;;;;;;;15.15;7.60;;;8.60;99.90;;;;;;5049954;28;20041;-60